sensor_id;sensor_type;location;lat;lon;timestamp;pressure;altitude;pressure_sealevel;temperature;humidity
75794;BME280;64418;47.536;19.074;2023-08-08T00:01:35;100285.81;;;13.92;82.81
75794;BME280;64418;47.536;19.074;2023-08-08T00:04:01;100285.34;;;13.95;82.06
75794;BME280;64418;47.536;19.074;2023-08-08T00:06:27;100279.66;;;13.96;81.24
75794;BME280;64418;47.536;19.074;2023-08-08T00:08:53;100294.25;;;14.02;81.29
75794;BME280;64418;47.536;19.074;2023-08-08T00:11:20;100295.75;;;13.98;81.56
75794;BME280;64418;47.536;19.074;2023-08-08T00:13:46;100307.38;;;13.93;82.20
75794;BME280;64418;47.536;19.074;2023-08-08T00:16:12;100311.25;;;13.86;82.86
75794;BME280;64418;47.536;19.074;2023-08-08T00:18:38;100310.63;;;13.84;83.13
75794;BME280;64418;47.536;19.074;2023-08-08T00:21:09;100310.91;;;13.94;81.80
75794;BME280;64418;47.536;19.074;2023-08-08T00:23:54;100314.84;;;13.98;81.22
75794;BME280;64418;47.536;19.074;2023-08-08T00:26:22;100311.06;;;13.99;80.68
75794;BME280;64418;47.536;19.074;2023-08-08T00:28:49;100311.78;;;14.06;80.00
75794;BME280;64418;47.536;19.074;2023-08-08T00:31:16;100314.19;;;14.14;79.32
75794;BME280;64418;47.536;19.074;2023-08-08T00:33:51;100315.72;;;14.10;79.77
75794;BME280;64418;47.536;19.074;2023-08-08T00:36:17;100314.03;;;14.09;79.82
75794;BME280;64418;47.536;19.074;2023-08-08T00:38:44;100330.03;;;14.06;80.17
75794;BME280;64418;47.536;19.074;2023-08-08T00:41:11;100324.00;;;14.04;80.38
75794;BME280;64418;47.536;19.074;2023-08-08T00:43:40;100320.28;;;13.98;80.89
75794;BME280;64418;47.536;19.074;2023-08-08T00:46:06;100325.13;;;13.96;80.80
75794;BME280;64418;47.536;19.074;2023-08-08T00:48:39;100328.44;;;13.98;80.70
75794;BME280;64418;47.536;19.074;2023-08-08T00:51:05;100329.38;;;13.92;81.08
75794;BME280;64418;47.536;19.074;2023-08-08T00:53:32;100325.22;;;13.89;81.39
75794;BME280;64418;47.536;19.074;2023-08-08T00:55:59;100327.59;;;13.86;81.85
75794;BME280;64418;47.536;19.074;2023-08-08T00:58:26;100337.41;;;13.87;81.89
75794;BME280;64418;47.536;19.074;2023-08-08T01:00:56;100341.31;;;13.91;81.42
75794;BME280;64418;47.536;19.074;2023-08-08T01:03:25;100329.00;;;13.88;81.54
75794;BME280;64418;47.536;19.074;2023-08-08T01:06:09;100334.22;;;13.90;81.08
75794;BME280;64418;47.536;19.074;2023-08-08T01:08:51;100332.16;;;14.04;79.56
75794;BME280;64418;47.536;19.074;2023-08-08T01:11:25;100333.72;;;14.11;78.47
75794;BME280;64418;47.536;19.074;2023-08-08T01:13:59;100337.88;;;14.14;78.23
75794;BME280;64418;47.536;19.074;2023-08-08T01:16:29;100348.09;;;14.18;78.23
75794;BME280;64418;47.536;19.074;2023-08-08T01:18:56;100345.09;;;14.08;78.76
75794;BME280;64418;47.536;19.074;2023-08-08T01:21:23;100342.75;;;14.12;78.32
75794;BME280;64418;47.536;19.074;2023-08-08T01:23:53;100353.41;;;14.13;78.02
75794;BME280;64418;47.536;19.074;2023-08-08T01:26:23;100346.53;;;14.11;78.21
75794;BME280;64418;47.536;19.074;2023-08-08T01:28:54;100344.25;;;14.08;78.23
75794;BME280;64418;47.536;19.074;2023-08-08T01:31:21;100348.87;;;14.07;78.41
75794;BME280;64418;47.536;19.074;2023-08-08T01:33:53;100341.91;;;14.11;78.05
75794;BME280;64418;47.536;19.074;2023-08-08T01:36:32;100339.03;;;14.06;78.26
75794;BME280;64418;47.536;19.074;2023-08-08T01:39:03;100330.28;;;14.04;78.60
75794;BME280;64418;47.536;19.074;2023-08-08T01:41:33;100337.25;;;14.00;78.96
75794;BME280;64418;47.536;19.074;2023-08-08T01:44:00;100329.66;;;14.02;78.81
75794;BME280;64418;47.536;19.074;2023-08-08T01:46:32;100336.50;;;13.93;79.69
75794;BME280;64418;47.536;19.074;2023-08-08T01:48:59;100332.56;;;13.89;80.02
75794;BME280;64418;47.536;19.074;2023-08-08T01:51:25;100340.75;;;13.89;79.92
75794;BME280;64418;47.536;19.074;2023-08-08T01:53:58;100333.62;;;13.88;80.17
75794;BME280;64418;47.536;19.074;2023-08-08T01:56:24;100333.47;;;13.83;80.57
75794;BME280;64418;47.536;19.074;2023-08-08T01:58:54;100336.66;;;13.80;80.81
75794;BME280;64418;47.536;19.074;2023-08-08T02:01:20;100339.63;;;13.78;80.94
75794;BME280;64418;47.536;19.074;2023-08-08T02:03:46;100345.75;;;13.74;81.37
75794;BME280;64418;47.536;19.074;2023-08-08T02:06:12;100351.66;;;13.71;81.54
75794;BME280;64418;47.536;19.074;2023-08-08T02:08:41;100350.66;;;13.65;82.11
75794;BME280;64418;47.536;19.074;2023-08-08T02:11:06;100339.84;;;13.59;82.75
75794;BME280;64418;47.536;19.074;2023-08-08T02:13:32;100347.84;;;13.54;83.12
75794;BME280;64418;47.536;19.074;2023-08-08T02:16:00;100352.72;;;13.52;83.50
75794;BME280;64418;47.536;19.074;2023-08-08T02:18:26;100357.53;;;13.49;83.83
75794;BME280;64418;47.536;19.074;2023-08-08T02:20:52;100353.00;;;13.43;84.28
75794;BME280;64418;47.536;19.074;2023-08-08T02:23:18;100358.06;;;13.40;84.59
75794;BME280;64418;47.536;19.074;2023-08-08T02:25:44;100361.84;;;13.39;84.71
75794;BME280;64418;47.536;19.074;2023-08-08T02:28:10;100358.09;;;13.33;84.87
75794;BME280;64418;47.536;19.074;2023-08-08T02:30:37;100363.16;;;13.30;85.68
75794;BME280;64418;47.536;19.074;2023-08-08T02:33:04;100366.59;;;13.25;85.93
75794;BME280;64418;47.536;19.074;2023-08-08T02:35:30;100363.25;;;13.23;86.33
75794;BME280;64418;47.536;19.074;2023-08-08T02:37:56;100362.47;;;13.16;86.74
75794;BME280;64418;47.536;19.074;2023-08-08T02:40:22;100362.47;;;13.16;86.80
75794;BME280;64418;47.536;19.074;2023-08-08T02:42:48;100371.69;;;13.15;86.98
75794;BME280;64418;47.536;19.074;2023-08-08T02:45:14;100370.47;;;13.11;87.59
75794;BME280;64418;47.536;19.074;2023-08-08T02:47:40;100368.38;;;13.13;87.63
75794;BME280;64418;47.536;19.074;2023-08-08T02:50:08;100365.03;;;13.11;87.62
75794;BME280;64418;47.536;19.074;2023-08-08T02:52:34;100376.16;;;13.10;87.97
75794;BME280;64418;47.536;19.074;2023-08-08T02:55:00;100378.00;;;13.09;88.01
75794;BME280;64418;47.536;19.074;2023-08-08T02:57:26;100372.34;;;13.11;87.99
75794;BME280;64418;47.536;19.074;2023-08-08T02:59:52;100382.56;;;13.15;87.60
75794;BME280;64418;47.536;19.074;2023-08-08T03:02:18;100380.72;;;13.09;87.58
75794;BME280;64418;47.536;19.074;2023-08-08T03:04:44;100384.69;;;13.13;87.72
75794;BME280;64418;47.536;19.074;2023-08-08T03:07:11;100385.94;;;13.11;88.04
75794;BME280;64418;47.536;19.074;2023-08-08T03:09:37;100386.59;;;13.06;88.51
75794;BME280;64418;47.536;19.074;2023-08-08T03:12:04;100369.72;;;12.97;88.94
75794;BME280;64418;47.536;19.074;2023-08-08T03:14:30;100379.75;;;12.97;89.62
75794;BME280;64418;47.536;19.074;2023-08-08T03:16:56;100374.78;;;12.94;89.71
75794;BME280;64418;47.536;19.074;2023-08-08T03:19:22;100375.63;;;12.94;89.59
75794;BME280;64418;47.536;19.074;2023-08-08T03:21:47;100383.31;;;12.97;89.69
75794;BME280;64418;47.536;19.074;2023-08-08T03:24:15;100387.31;;;12.95;89.90
75794;BME280;64418;47.536;19.074;2023-08-08T03:26:40;100388.12;;;12.95;89.66
75794;BME280;64418;47.536;19.074;2023-08-08T03:29:06;100386.50;;;12.94;89.62
75794;BME280;64418;47.536;19.074;2023-08-08T03:31:32;100395.91;;;12.92;90.00
75794;BME280;64418;47.536;19.074;2023-08-08T03:33:58;100395.91;;;12.92;89.81
75794;BME280;64418;47.536;19.074;2023-08-08T03:36:24;100394.84;;;12.93;90.01
75794;BME280;64418;47.536;19.074;2023-08-08T03:38:49;100403.00;;;12.93;89.98
75794;BME280;64418;47.536;19.074;2023-08-08T03:41:17;100409.09;;;12.95;89.68
75794;BME280;64418;47.536;19.074;2023-08-08T03:43:43;100407.03;;;12.90;90.12
75794;BME280;64418;47.536;19.074;2023-08-08T03:46:09;100408.91;;;12.90;90.35
75794;BME280;64418;47.536;19.074;2023-08-08T03:48:35;100422.72;;;12.88;90.69
75794;BME280;64418;47.536;19.074;2023-08-08T03:51:01;100428.00;;;12.83;91.18
75794;BME280;64418;47.536;19.074;2023-08-08T03:53:27;100424.63;;;12.81;91.27
75794;BME280;64418;47.536;19.074;2023-08-08T03:55:53;100429.25;;;12.81;91.42
75794;BME280;64418;47.536;19.074;2023-08-08T03:58:21;100438.03;;;12.83;91.02
75794;BME280;64418;47.536;19.074;2023-08-08T04:00:47;100448.00;;;12.89;91.07
75794;BME280;64418;47.536;19.074;2023-08-08T04:03:13;100445.47;;;12.94;90.33
75794;BME280;64418;47.536;19.074;2023-08-08T04:05:39;100440.44;;;12.97;89.83
75794;BME280;64418;47.536;19.074;2023-08-08T04:08:06;100454.88;;;12.98;89.79
75794;BME280;64418;47.536;19.074;2023-08-08T04:10:32;100456.81;;;12.91;90.09
75794;BME280;64418;47.536;19.074;2023-08-08T04:12:58;100459.06;;;12.94;89.81
75794;BME280;64418;47.536;19.074;2023-08-08T04:15:25;100460.91;;;13.00;89.47
75794;BME280;64418;47.536;19.074;2023-08-08T04:17:52;100462.19;;;12.97;89.38
75794;BME280;64418;47.536;19.074;2023-08-08T04:20:18;100463.03;;;12.98;89.51
75794;BME280;64418;47.536;19.074;2023-08-08T04:22:45;100467.19;;;13.00;89.20
75794;BME280;64418;47.536;19.074;2023-08-08T04:25:11;100471.97;;;13.05;89.16
75794;BME280;64418;47.536;19.074;2023-08-08T04:27:37;100467.75;;;13.09;88.95
75794;BME280;64418;47.536;19.074;2023-08-08T04:30:05;100477.63;;;13.10;88.84
75794;BME280;64418;47.536;19.074;2023-08-08T04:32:32;100484.28;;;13.14;88.45
75794;BME280;64418;47.536;19.074;2023-08-08T04:34:58;100484.69;;;13.18;88.11
75794;BME280;64418;47.536;19.074;2023-08-08T04:37:24;100485.47;;;13.18;87.51
75794;BME280;64418;47.536;19.074;2023-08-08T04:39:50;100476.06;;;13.21;87.42
75794;BME280;64418;47.536;19.074;2023-08-08T04:42:16;100485.66;;;13.23;87.71
75794;BME280;64418;47.536;19.074;2023-08-08T04:44:42;100485.84;;;13.28;86.67
75794;BME280;64418;47.536;19.074;2023-08-08T04:47:09;100483.72;;;13.30;86.44
75794;BME280;64418;47.536;19.074;2023-08-08T04:49:36;100483.28;;;13.33;86.32
75794;BME280;64418;47.536;19.074;2023-08-08T04:52:03;100483.25;;;13.40;86.36
75794;BME280;64418;47.536;19.074;2023-08-08T04:54:29;100486.94;;;13.45;85.99
75794;BME280;64418;47.536;19.074;2023-08-08T04:56:55;100487.31;;;13.56;84.72
75794;BME280;64418;47.536;19.074;2023-08-08T04:59:21;100495.41;;;13.62;84.17
75794;BME280;64418;47.536;19.074;2023-08-08T05:01:47;100488.84;;;13.70;83.00
75794;BME280;64418;47.536;19.074;2023-08-08T05:04:13;100489.16;;;13.80;82.35
75794;BME280;64418;47.536;19.074;2023-08-08T05:06:40;100487.81;;;13.89;81.42
75794;BME280;64418;47.536;19.074;2023-08-08T05:09:06;100496.12;;;13.94;81.17
75794;BME280;64418;47.536;19.074;2023-08-08T05:11:32;100498.53;;;14.02;80.57
75794;BME280;64418;47.536;19.074;2023-08-08T05:13:58;100488.28;;;14.04;80.24
75794;BME280;64418;47.536;19.074;2023-08-08T05:16:25;100492.22;;;14.08;80.10
75794;BME280;64418;47.536;19.074;2023-08-08T05:18:51;100493.81;;;14.16;79.20
75794;BME280;64418;47.536;19.074;2023-08-08T05:21:17;100486.84;;;14.20;79.23
75794;BME280;64418;47.536;19.074;2023-08-08T05:23:45;100489.59;;;14.31;78.46
75794;BME280;64418;47.536;19.074;2023-08-08T05:26:12;100496.47;;;14.40;78.12
75794;BME280;64418;47.536;19.074;2023-08-08T05:28:37;100491.75;;;14.48;77.72
75794;BME280;64418;47.536;19.074;2023-08-08T05:31:03;100494.03;;;14.51;77.26
75794;BME280;64418;47.536;19.074;2023-08-08T05:33:29;100508.81;;;14.61;76.73
75794;BME280;64418;47.536;19.074;2023-08-08T05:35:55;100507.03;;;14.67;76.64
75794;BME280;64418;47.536;19.074;2023-08-08T05:38:21;100511.59;;;14.73;76.07
75794;BME280;64418;47.536;19.074;2023-08-08T05:40:48;100507.31;;;14.77;75.41
75794;BME280;64418;47.536;19.074;2023-08-08T05:43:14;100498.34;;;14.88;75.00
75794;BME280;64418;47.536;19.074;2023-08-08T05:45:40;100501.22;;;14.93;74.62
75794;BME280;64418;47.536;19.074;2023-08-08T05:48:06;100501.34;;;14.98;74.13
75794;BME280;64418;47.536;19.074;2023-08-08T05:50:32;100513.16;;;15.10;74.09
75794;BME280;64418;47.536;19.074;2023-08-08T05:52:58;100506.03;;;15.09;73.94
75794;BME280;64418;47.536;19.074;2023-08-08T05:55:24;100512.69;;;15.13;73.90
75794;BME280;64418;47.536;19.074;2023-08-08T05:57:51;100506.28;;;15.19;74.14
75794;BME280;64418;47.536;19.074;2023-08-08T06:00:21;100516.16;;;15.32;73.38
75794;BME280;64418;47.536;19.074;2023-08-08T06:02:47;100505.94;;;15.27;73.13
75794;BME280;64418;47.536;19.074;2023-08-08T06:05:13;100519.41;;;15.40;72.87
75794;BME280;64418;47.536;19.074;2023-08-08T06:07:39;100516.41;;;15.42;72.62
75794;BME280;64418;47.536;19.074;2023-08-08T06:10:06;100522.06;;;15.59;71.95
75794;BME280;64418;47.536;19.074;2023-08-08T06:12:32;100511.63;;;15.56;71.67
75794;BME280;64418;47.536;19.074;2023-08-08T06:14:59;100508.88;;;15.56;71.47
75794;BME280;64418;47.536;19.074;2023-08-08T06:17:25;100519.81;;;15.79;70.95
75794;BME280;64418;47.536;19.074;2023-08-08T06:19:51;100527.91;;;15.97;70.40
75794;BME280;64418;47.536;19.074;2023-08-08T06:22:17;100531.84;;;16.01;69.74
75794;BME280;64418;47.536;19.074;2023-08-08T06:24:43;100516.00;;;15.92;69.70
75794;BME280;64418;47.536;19.074;2023-08-08T06:27:09;100521.63;;;15.97;69.13
75794;BME280;64418;47.536;19.074;2023-08-08T06:29:35;100522.19;;;16.10;68.61
75794;BME280;64418;47.536;19.074;2023-08-08T06:32:04;100530.84;;;16.30;68.09
75794;BME280;64418;47.536;19.074;2023-08-08T06:34:30;100528.66;;;16.56;67.38
75794;BME280;64418;47.536;19.074;2023-08-08T06:36:56;100525.94;;;16.44;66.92
75794;BME280;64418;47.536;19.074;2023-08-08T06:39:21;100528.66;;;16.56;66.79
75794;BME280;64418;47.536;19.074;2023-08-08T06:41:47;100527.81;;;16.67;66.37
75794;BME280;64418;47.536;19.074;2023-08-08T06:44:14;100536.09;;;16.83;65.79
75794;BME280;64418;47.536;19.074;2023-08-08T06:46:40;100523.41;;;16.54;65.66
75794;BME280;64418;47.536;19.074;2023-08-08T06:49:10;100545.91;;;16.68;65.49
75794;BME280;64418;47.536;19.074;2023-08-08T06:51:36;100537.88;;;16.78;65.51
75794;BME280;64418;47.536;19.074;2023-08-08T06:54:02;100550.69;;;16.89;64.69
75794;BME280;64418;47.536;19.074;2023-08-08T06:56:28;100549.91;;;16.77;65.26
75794;BME280;64418;47.536;19.074;2023-08-08T06:58:55;100552.78;;;17.10;65.02
75794;BME280;64418;47.536;19.074;2023-08-08T07:01:21;100550.50;;;17.07;64.56
75794;BME280;64418;47.536;19.074;2023-08-08T07:03:51;100557.25;;;17.16;64.51
75794;BME280;64418;47.536;19.074;2023-08-08T07:06:20;100555.47;;;17.22;64.58
75794;BME280;64418;47.536;19.074;2023-08-08T07:08:46;100553.41;;;17.29;63.88
75794;BME280;64418;47.536;19.074;2023-08-08T07:11:13;100553.19;;;17.64;63.15
75794;BME280;64418;47.536;19.074;2023-08-08T07:13:39;100550.16;;;17.77;62.94
75794;BME280;64418;47.536;19.074;2023-08-08T07:16:05;100558.00;;;17.90;62.47
75794;BME280;64418;47.536;19.074;2023-08-08T07:18:31;100536.28;;;17.67;62.59
75794;BME280;64418;47.536;19.074;2023-08-08T07:20:57;100545.56;;;17.66;62.66
75794;BME280;64418;47.536;19.074;2023-08-08T07:23:24;100541.00;;;17.88;60.66
75794;BME280;64418;47.536;19.074;2023-08-08T07:25:51;100547.72;;;17.97;60.19
75794;BME280;64418;47.536;19.074;2023-08-08T07:28:17;100548.06;;;17.84;60.40
75794;BME280;64418;47.536;19.074;2023-08-08T07:30:43;100530.69;;;17.95;59.67
75794;BME280;64418;47.536;19.074;2023-08-08T07:33:09;100545.03;;;18.02;60.57
75794;BME280;64418;47.536;19.074;2023-08-08T07:35:35;100544.91;;;18.09;60.02
75794;BME280;64418;47.536;19.074;2023-08-08T07:38:02;100551.88;;;18.55;58.97
75794;BME280;64418;47.536;19.074;2023-08-08T07:40:29;100545.41;;;18.66;57.92
75794;BME280;64418;47.536;19.074;2023-08-08T07:42:56;100550.53;;;18.79;57.81
75794;BME280;64418;47.536;19.074;2023-08-08T07:45:21;100548.03;;;18.77;57.04
75794;BME280;64418;47.536;19.074;2023-08-08T07:47:47;100553.53;;;18.56;58.04
75794;BME280;64418;47.536;19.074;2023-08-08T07:50:13;100550.00;;;18.82;57.43
75794;BME280;64418;47.536;19.074;2023-08-08T07:52:40;100561.09;;;18.92;56.78
75794;BME280;64418;47.536;19.074;2023-08-08T07:55:06;100562.25;;;18.96;56.53
75794;BME280;64418;47.536;19.074;2023-08-08T07:57:34;100563.53;;;19.10;56.17
75794;BME280;64418;47.536;19.074;2023-08-08T08:00:00;100563.22;;;19.60;54.47
75794;BME280;64418;47.536;19.074;2023-08-08T08:02:26;100566.03;;;19.65;54.38
75794;BME280;64418;47.536;19.074;2023-08-08T08:04:52;100564.50;;;19.48;54.65
75794;BME280;64418;47.536;19.074;2023-08-08T08:07:18;100556.81;;;19.50;54.76
75794;BME280;64418;47.536;19.074;2023-08-08T08:09:44;100557.94;;;20.23;52.87
75794;BME280;64418;47.536;19.074;2023-08-08T08:12:10;100557.88;;;20.12;51.87
75794;BME280;64418;47.536;19.074;2023-08-08T08:14:37;100552.94;;;20.14;51.31
75794;BME280;64418;47.536;19.074;2023-08-08T08:17:04;100569.37;;;20.04;50.73
75794;BME280;64418;47.536;19.074;2023-08-08T08:19:30;100566.03;;;20.02;50.80
75794;BME280;64418;47.536;19.074;2023-08-08T08:21:55;100564.00;;;20.25;50.03
75794;BME280;64418;47.536;19.074;2023-08-08T08:24:21;100566.75;;;20.25;48.62
75794;BME280;64418;47.536;19.074;2023-08-08T08:26:47;100565.87;;;20.56;48.81
75794;BME280;64418;47.536;19.074;2023-08-08T08:29:13;100559.81;;;20.59;48.63
75794;BME280;64418;47.536;19.074;2023-08-08T08:31:40;100570.38;;;20.72;47.99
75794;BME280;64418;47.536;19.074;2023-08-08T08:34:06;100558.31;;;20.93;47.39
75794;BME280;64418;47.536;19.074;2023-08-08T08:36:32;100553.56;;;20.69;46.84
75794;BME280;64418;47.536;19.074;2023-08-08T08:38:59;100566.69;;;21.13;45.54
75794;BME280;64418;47.536;19.074;2023-08-08T08:41:27;100566.75;;;21.34;46.00
75794;BME280;64418;47.536;19.074;2023-08-08T08:43:57;100575.41;;;20.90;46.15
75794;BME280;64418;47.536;19.074;2023-08-08T08:46:25;100571.50;;;20.76;46.46
75794;BME280;64418;47.536;19.074;2023-08-08T08:48:54;100562.16;;;20.92;46.30
75794;BME280;64418;47.536;19.074;2023-08-08T08:51:21;100568.91;;;21.22;45.85
75794;BME280;64418;47.536;19.074;2023-08-08T08:53:48;100569.37;;;20.98;45.98
75794;BME280;64418;47.536;19.074;2023-08-08T08:56:14;100574.75;;;20.68;47.20
75794;BME280;64418;47.536;19.074;2023-08-08T08:58:41;100571.59;;;21.06;46.55
75794;BME280;64418;47.536;19.074;2023-08-08T09:01:07;100574.88;;;20.98;47.12
75794;BME280;64418;47.536;19.074;2023-08-08T09:03:35;100572.09;;;20.88;48.05
75794;BME280;64418;47.536;19.074;2023-08-08T09:06:03;100573.19;;;20.92;47.03
75794;BME280;64418;47.536;19.074;2023-08-08T09:08:30;100585.22;;;20.24;47.93
75794;BME280;64418;47.536;19.074;2023-08-08T09:10:56;100582.00;;;20.37;48.75
75794;BME280;64418;47.536;19.074;2023-08-08T09:13:23;100581.34;;;20.62;48.24
75794;BME280;64418;47.536;19.074;2023-08-08T09:15:49;100577.66;;;20.46;48.58
75794;BME280;64418;47.536;19.074;2023-08-08T09:18:16;100584.12;;;20.77;47.74
75794;BME280;64418;47.536;19.074;2023-08-08T09:20:47;100582.56;;;20.96;48.38
75794;BME280;64418;47.536;19.074;2023-08-08T09:23:14;100586.53;;;21.21;47.63
75794;BME280;64418;47.536;19.074;2023-08-08T09:25:40;100589.41;;;20.89;48.45
75794;BME280;64418;47.536;19.074;2023-08-08T09:28:06;100561.19;;;21.13;47.61
75794;BME280;64418;47.536;19.074;2023-08-08T09:30:32;100584.22;;;20.97;47.84
75794;BME280;64418;47.536;19.074;2023-08-08T09:32:58;100585.06;;;20.98;47.53
75794;BME280;64418;47.536;19.074;2023-08-08T09:35:29;100595.44;;;21.48;45.84
75794;BME280;64418;47.536;19.074;2023-08-08T09:37:55;100584.94;;;21.35;46.53
75794;BME280;64418;47.536;19.074;2023-08-08T09:40:23;100587.19;;;21.73;45.68
75794;BME280;64418;47.536;19.074;2023-08-08T09:42:51;100589.41;;;22.22;45.87
75794;BME280;64418;47.536;19.074;2023-08-08T09:45:18;100588.88;;;22.15;45.40
75794;BME280;64418;47.536;19.074;2023-08-08T09:47:44;100585.56;;;22.02;45.09
75794;BME280;64418;47.536;19.074;2023-08-08T09:50:10;100596.59;;;22.02;44.85
75794;BME280;64418;47.536;19.074;2023-08-08T09:52:36;100578.63;;;22.25;44.52
75794;BME280;64418;47.536;19.074;2023-08-08T09:55:03;100590.50;;;22.26;44.45
75794;BME280;64418;47.536;19.074;2023-08-08T09:57:32;100588.31;;;22.07;44.26
75794;BME280;64418;47.536;19.074;2023-08-08T09:59:58;100581.03;;;22.72;43.01
75794;BME280;64418;47.536;19.074;2023-08-08T10:02:25;100588.19;;;22.78;43.03
75794;BME280;64418;47.536;19.074;2023-08-08T10:04:51;100578.09;;;22.18;43.88
75794;BME280;64418;47.536;19.074;2023-08-08T10:07:18;100582.16;;;22.56;43.03
75794;BME280;64418;47.536;19.074;2023-08-08T10:09:44;100590.22;;;22.32;43.73
75794;BME280;64418;47.536;19.074;2023-08-08T10:12:11;100587.62;;;22.81;42.64
75794;BME280;64418;47.536;19.074;2023-08-08T10:14:42;100583.47;;;23.48;40.05
75794;BME280;64418;47.536;19.074;2023-08-08T10:17:13;100580.59;;;21.99;43.79
75794;BME280;64418;47.536;19.074;2023-08-08T10:19:40;100578.88;;;22.54;43.01
75794;BME280;64418;47.536;19.074;2023-08-08T10:22:15;100567.25;;;22.52;42.68
75794;BME280;64418;47.536;19.074;2023-08-08T10:24:47;100563.78;;;23.00;41.89
75794;BME280;64418;47.536;19.074;2023-08-08T10:27:13;100560.25;;;23.44;40.53
75794;BME280;64418;47.536;19.074;2023-08-08T10:29:41;100556.44;;;23.30;40.57
75794;BME280;64418;47.536;19.074;2023-08-08T10:32:23;100560.72;;;24.71;37.41
75794;BME280;64418;47.536;19.074;2023-08-08T10:34:50;100562.50;;;24.86;36.13
75794;BME280;64418;47.536;19.074;2023-08-08T10:37:21;100560.72;;;23.56;38.17
75794;BME280;64418;47.536;19.074;2023-08-08T10:39:53;100562.25;;;24.82;36.35
75794;BME280;64418;47.536;19.074;2023-08-08T10:42:20;100552.75;;;25.31;34.87
75794;BME280;64418;47.536;19.074;2023-08-08T10:44:52;100546.13;;;25.27;35.13
75794;BME280;64418;47.536;19.074;2023-08-08T10:47:22;100549.31;;;23.96;37.12
75794;BME280;64418;47.536;19.074;2023-08-08T10:49:57;100547.25;;;24.88;36.02
75794;BME280;64418;47.536;19.074;2023-08-08T10:52:24;100551.53;;;23.94;36.24
75794;BME280;64418;47.536;19.074;2023-08-08T10:54:53;100548.03;;;24.18;36.54
75794;BME280;64418;47.536;19.074;2023-08-08T10:57:19;100541.03;;;23.91;37.50
75794;BME280;64418;47.536;19.074;2023-08-08T10:59:46;100551.34;;;23.52;38.42
75794;BME280;64418;47.536;19.074;2023-08-08T11:02:14;100543.00;;;23.13;40.14
75794;BME280;64418;47.536;19.074;2023-08-08T11:04:41;100548.25;;;23.92;37.59
75794;BME280;64418;47.536;19.074;2023-08-08T11:07:08;100548.09;;;23.79;37.87
75794;BME280;64418;47.536;19.074;2023-08-08T11:09:34;100534.50;;;22.99;39.40
75794;BME280;64418;47.536;19.074;2023-08-08T11:12:00;100549.28;;;24.02;37.46
75794;BME280;64418;47.536;19.074;2023-08-08T11:14:27;100537.84;;;24.37;36.42
75794;BME280;64418;47.536;19.074;2023-08-08T11:16:53;100541.84;;;24.97;34.87
75794;BME280;64418;47.536;19.074;2023-08-08T11:19:21;100536.31;;;25.34;34.71
75794;BME280;64418;47.536;19.074;2023-08-08T11:21:47;100543.50;;;24.74;36.25
75794;BME280;64418;47.536;19.074;2023-08-08T11:24:14;100546.25;;;23.98;38.04
75794;BME280;64418;47.536;19.074;2023-08-08T11:26:41;100538.13;;;23.39;36.94
75794;BME280;64418;47.536;19.074;2023-08-08T11:29:09;100542.81;;;23.48;37.19
75794;BME280;64418;47.536;19.074;2023-08-08T11:31:36;100542.53;;;24.13;36.27
75794;BME280;64418;47.536;19.074;2023-08-08T11:34:02;100539.38;;;24.24;36.31
75794;BME280;64418;47.536;19.074;2023-08-08T11:36:31;100539.47;;;23.46;36.80
75794;BME280;64418;47.536;19.074;2023-08-08T11:39:00;100534.09;;;22.72;39.29
75794;BME280;64418;47.536;19.074;2023-08-08T11:41:28;100546.00;;;23.94;37.34
75794;BME280;64418;47.536;19.074;2023-08-08T11:43:54;100538.34;;;23.03;38.40
75794;BME280;64418;47.536;19.074;2023-08-08T11:46:23;100535.91;;;23.41;37.53
75794;BME280;64418;47.536;19.074;2023-08-08T11:48:49;100535.06;;;23.45;38.11
75794;BME280;64418;47.536;19.074;2023-08-08T11:51:16;100518.34;;;22.68;39.79
75794;BME280;64418;47.536;19.074;2023-08-08T11:53:50;100525.16;;;22.90;39.13
75794;BME280;64418;47.536;19.074;2023-08-08T11:56:17;100535.47;;;23.68;38.05
75794;BME280;64418;47.536;19.074;2023-08-08T11:58:45;100527.03;;;24.12;37.47
75794;BME280;64418;47.536;19.074;2023-08-08T12:01:12;100523.69;;;24.10;37.34
75794;BME280;64418;47.536;19.074;2023-08-08T12:03:39;100514.94;;;24.31;37.73
75794;BME280;64418;47.536;19.074;2023-08-08T12:06:12;100509.50;;;24.92;36.12
75794;BME280;64418;47.536;19.074;2023-08-08T12:08:42;100508.75;;;25.24;34.84
75794;BME280;64418;47.536;19.074;2023-08-08T12:11:12;100510.81;;;24.00;37.39
75794;BME280;64418;47.536;19.074;2023-08-08T12:13:44;100468.31;;;24.62;35.97
75794;BME280;64418;47.536;19.074;2023-08-08T12:16:13;100505.69;;;24.83;35.79
75794;BME280;64418;47.536;19.074;2023-08-08T12:18:41;100502.47;;;25.00;35.63
75794;BME280;64418;47.536;19.074;2023-08-08T12:21:11;100497.94;;;26.06;34.30
75794;BME280;64418;47.536;19.074;2023-08-08T12:23:38;100489.72;;;26.15;33.14
75794;BME280;64418;47.536;19.074;2023-08-08T12:26:07;100504.16;;;26.17;32.32
75794;BME280;64418;47.536;19.074;2023-08-08T12:28:37;100498.34;;;26.00;31.82
75794;BME280;64418;47.536;19.074;2023-08-08T12:31:06;100492.56;;;25.82;32.24
75794;BME280;64418;47.536;19.074;2023-08-08T12:33:34;100493.53;;;25.22;31.41
75794;BME280;64418;47.536;19.074;2023-08-08T12:36:00;100490.66;;;25.27;31.29
75794;BME280;64418;47.536;19.074;2023-08-08T12:38:26;100488.06;;;24.98;31.62
75794;BME280;64418;47.536;19.074;2023-08-08T12:40:52;100490.88;;;25.30;31.98